Time;durP1;ratioP1;P1;durP2;ratioP2;P2;SDS_P1;SDS_P2;PMS_P1;PMS_P2;Temp;Humidity;BMP_temperature;BMP_pressure;BME280_temperature;BME280_humidity;BME280_pressure;Samples;Min_cycle;Max_cycle;Signal;HPM_P1;HPM_P2
2022/05/20 00:02:07;;;;;;;;;;;14.10;99.90;;;;;;6246053;23;19930;-79
2022/05/20 00:04:32;;;;;;;;;;;14.10;99.90;;;;;;6246445;23;19943;-79
2022/05/20 00:06:58;;;;;;;;;;;14.00;99.90;;;;;;6219184;23;19923;-80
2022/05/20 00:09:23;;;;;;;;;;;14.00;99.90;;;;;;6246613;23;19920;-79
2022/05/20 00:11:50;;;;;;;;;;;14.10;99.90;;;;;;6246126;23;19919;-80
2022/05/20 00:14:15;;;;;;;;;;;14.00;99.90;;;;;;6246140;23;19919;-79
2022/05/20 00:16:41;;;;;;;;;;;14.00;99.90;;;;;;6246314;23;19955;-81
2022/05/20 00:19:07;;;;;;;;;;;14.00;99.90;;;;;;6245773;23;19973;-81
2022/05/20 00:21:33;;;;;;;;;;;14.00;99.90;;;;;;6193344;23;19927;-79
2022/05/20 00:23:59;;;;;;;;;;;13.90;99.90;;;;;;6245958;23;19924;-78
2022/05/20 00:26:25;;;;;;;;;;;13.90;99.90;;;;;;6219095;23;19924;-81
2022/05/20 00:28:53;;;;;;;;;;;13.90;99.90;;;;;;6246218;23;19983;-81
2022/05/20 00:31:19;;;;;;;;;;;13.90;99.90;;;;;;6246297;23;20346;-81
2022/05/20 00:33:45;;;;;;;;;;;13.90;99.90;;;;;;6218372;23;20265;-81
2022/05/20 00:36:10;;;;;;;;;;;13.80;99.90;;;;;;6218772;23;19920;-80
2022/05/20 00:38:36;;;;;;;;;;;13.90;99.90;;;;;;6217953;23;19987;-81
2022/05/20 00:41:02;;;;;;;;;;;13.90;99.90;;;;;;6218953;23;20226;-81
2022/05/20 00:43:27;;;;;;;;;;;13.80;99.90;;;;;;6246260;23;19920;-80
2022/05/20 00:45:54;;;;;;;;;;;13.90;99.90;;;;;;6245461;23;19919;-80
2022/05/20 00:48:20;;;;;;;;;;;13.80;99.90;;;;;;6246157;23;19920;-78
2022/05/20 00:50:59;;;;;;;;;;;13.90;99.90;;;;;;6245363;23;19919;-79
2022/05/20 00:53:28;;;;;;;;;;;13.80;99.90;;;;;;6241336;23;19920;-80
2022/05/20 00:55:54;;;;;;;;;;;13.90;99.90;;;;;;6246115;23;19930;-81
2022/05/20 00:58:21;;;;;;;;;;;13.80;99.90;;;;;;6246050;23;19973;-80
2022/05/20 01:00:49;;;;;;;;;;;13.80;99.90;;;;;;6218912;23;19998;-77
2022/05/20 01:03:16;;;;;;;;;;;13.80;99.90;;;;;;6245570;23;19924;-81
2022/05/20 01:05:44;;;;;;;;;;;13.80;99.90;;;;;;6218227;23;19951;-81
2022/05/20 01:08:12;;;;;;;;;;;13.80;99.90;;;;;;6245629;23;20330;-81
2022/05/20 01:10:37;;;;;;;;;;;13.80;99.90;;;;;;6218704;23;20260;-78
2022/05/20 01:13:03;;;;;;;;;;;13.80;99.90;;;;;;6245805;23;19951;-81
2022/05/20 01:15:29;;;;;;;;;;;13.70;99.90;;;;;;6245524;23;19919;-81
2022/05/20 01:17:56;;;;;;;;;;;13.70;99.90;;;;;;6245751;23;19973;-81
2022/05/20 01:20:30;;;;;;;;;;;13.70;99.90;;;;;;6218053;23;19919;-81
2022/05/20 01:23:00;;;;;;;;;;;13.60;99.90;;;;;;6245427;23;19926;-82
2022/05/20 01:25:27;;;;;;;;;;;13.60;99.90;;;;;;6245786;23;19931;-80
2022/05/20 01:27:52;;;;;;;;;;;13.50;99.90;;;;;;6218556;23;19920;-81
2022/05/20 01:30:20;;;;;;;;;;;13.50;99.90;;;;;;6245544;23;19931;-81
2022/05/20 01:32:46;;;;;;;;;;;13.50;99.90;;;;;;6245268;23;19920;-80
2022/05/20 01:35:14;;;;;;;;;;;13.40;99.90;;;;;;6245540;23;19974;-79
2022/05/20 01:37:40;;;;;;;;;;;13.40;99.90;;;;;;6244840;23;19916;-81
2022/05/20 01:40:07;;;;;;;;;;;13.30;99.90;;;;;;6218413;23;19998;-80
2022/05/20 01:42:38;;;;;;;;;;;13.20;99.90;;;;;;6245785;23;19965;-80
2022/05/20 01:45:15;;;;;;;;;;;13.10;99.90;;;;;;6245592;23;19994;-80
2022/05/20 01:47:51;;;;;;;;;;;13.10;99.90;;;;;;6243559;23;19994;-81
2022/05/20 01:50:20;;;;;;;;;;;13.00;99.90;;;;;;6245442;23;19926;-81
2022/05/20 01:52:59;;;;;;;;;;;13.00;99.90;;;;;;6216934;23;19986;-79
2022/05/20 01:55:43;;;;;;;;;;;13.00;99.90;;;;;;6245702;23;20227;-81
2022/05/20 01:58:12;;;;;;;;;;;12.90;99.90;;;;;;6245491;23;19970;-79
2022/05/20 02:00:39;;;;;;;;;;;12.80;99.90;;;;;;6245591;23;20309;-81
2022/05/20 02:03:08;;;;;;;;;;;12.80;99.90;;;;;;6218553;23;19958;-79
2022/05/20 02:05:41;;;;;;;;;;;12.70;99.90;;;;;;6243675;23;20388;-80
2022/05/20 02:08:19;;;;;;;;;;;12.70;99.90;;;;;;6218158;23;19951;-81
2022/05/20 02:10:47;;;;;;;;;;;12.70;99.90;;;;;;6218430;23;20339;-80
2022/05/20 02:13:15;;;;;;;;;;;12.70;99.90;;;;;;6245056;23;19927;-79
2022/05/20 02:15:44;;;;;;;;;;;12.60;99.90;;;;;;6245475;23;19959;-80
2022/05/20 02:18:13;;;;;;;;;;;12.60;99.90;;;;;;6245151;23;19974;-81
2022/05/20 02:20:40;;;;;;;;;;;12.60;99.90;;;;;;6246735;23;19924;-77
2022/05/20 02:23:08;;;;;;;;;;;12.50;99.90;;;;;;6220046;23;19955;-80
2022/05/20 02:25:36;;;;;;;;;;;12.50;99.90;;;;;;6246605;23;19919;-80
2022/05/20 02:28:22;;;;;;;;;;;12.40;99.90;;;;;;6246797;23;19927;-80
2022/05/20 02:30:47;;;;;;;;;;;12.40;99.90;;;;;;6219014;23;20049;-78
2022/05/20 02:33:15;;;;;;;;;;;12.30;99.90;;;;;;6220177;23;19950;-80
2022/05/20 02:35:42;;;;;;;;;;;12.20;99.90;;;;;;6247172;23;19922;-79
2022/05/20 02:38:14;;;;;;;;;;;12.20;99.90;;;;;;6244496;23;20322;-80
2022/05/20 02:40:41;;;;;;;;;;;12.20;99.90;;;;;;6219613;23;19916;-79
2022/05/20 02:43:07;;;;;;;;;;;12.10;99.90;;;;;;6218892;23;19955;-79
2022/05/20 02:45:33;;;;;;;;;;;12.10;99.90;;;;;;6193590;23;19920;-80
2022/05/20 02:47:58;;;;;;;;;;;12.30;99.90;;;;;;6246707;23;19926;-81
2022/05/20 02:50:24;;;;;;;;;;;11.90;99.90;;;;;;6245238;23;19919;-80
2022/05/20 02:52:49;;;;;;;;;;;11.90;99.90;;;;;;6220074;23;19916;-79
2022/05/20 02:55:15;;;;;;;;;;;12.00;99.90;;;;;;6219627;23;19920;-81
2022/05/20 02:57:42;;;;;;;;;;;11.90;99.90;;;;;;6219566;23;19915;-80
2022/05/20 03:05:36;;;;;;;;;;;11.70;99.90;;;;;;6219884;23;19919;-80
2022/05/20 03:08:02;;;;;;;;;;;11.70;99.90;;;;;;6219884;23;20050;-80
2022/05/20 03:10:28;;;;;;;;;;;11.70;99.90;;;;;;6219839;23;20317;-81
2022/05/20 03:13:00;;;;;;;;;;;11.70;99.90;;;;;;6246255;23;19920;-80
2022/05/20 03:15:25;;;;;;;;;;;11.60;99.90;;;;;;6243778;23;19923;-80
2022/05/20 03:17:51;;;;;;;;;;;11.60;99.90;;;;;;6246547;23;19954;-80
2022/05/20 03:20:16;;;;;;;;;;;11.60;99.90;;;;;;6219728;23;19998;-78
2022/05/20 03:22:42;;;;;;;;;;;11.50;99.90;;;;;;6219731;23;19919;-81
2022/05/20 03:25:08;;;;;;;;;;;11.50;99.90;;;;;;6219491;23;19924;-81
2022/05/20 03:27:34;;;;;;;;;;;11.40;99.90;;;;;;6246287;23;19964;-80
2022/05/20 03:29:59;;;;;;;;;;;11.60;99.90;;;;;;6246988;23;19947;-81
2022/05/20 03:32:25;;;;;;;;;;;11.60;99.90;;;;;;6246434;23;19926;-81
2022/05/20 03:34:51;;;;;;;;;;;11.30;99.90;;;;;;6246721;23;20244;-81
2022/05/20 03:37:16;;;;;;;;;;;11.30;99.90;;;;;;6219454;23;19947;-80
2022/05/20 03:39:42;;;;;;;;;;;11.30;99.90;;;;;;6219576;23;19919;-80
2022/05/20 03:42:08;;;;;;;;;;;11.30;99.90;;;;;;6246553;23;19929;-78
2022/05/20 03:44:33;;;;;;;;;;;11.30;99.90;;;;;;6218986;23;19919;-78
2022/05/20 03:46:59;;;;;;;;;;;11.20;99.90;;;;;;6214360;23;19920;-79
2022/05/20 03:49:26;;;;;;;;;;;11.20;99.90;;;;;;6214275;23;19927;-80
2022/05/20 03:51:52;;;;;;;;;;;11.20;99.90;;;;;;6214121;23;19970;-80
2022/05/20 03:54:18;;;;;;;;;;;11.70;99.90;;;;;;6238662;23;19998;-80
2022/05/20 03:56:44;;;;;;;;;;;11.20;99.90;;;;;;6214395;23;20341;-80
2022/05/20 03:59:10;;;;;;;;;;;11.30;99.90;;;;;;6213873;23;19951;-79
2022/05/20 04:04:21;;;;;;;;;;;11.30;99.90;;;;;;6216082;23;20227;-80
2022/05/20 04:06:46;;;;;;;;;;;11.30;99.90;;;;;;6215886;23;19920;-80
2022/05/20 04:09:12;;;;;;;;;;;11.30;99.90;;;;;;6216075;23;19919;-79
2022/05/20 04:11:38;;;;;;;;;;;11.80;99.90;;;;;;6216103;23;19924;-79
2022/05/20 04:14:03;;;;;;;;;;;11.30;99.90;;;;;;6215509;23;19920;-80
2022/05/20 04:16:29;;;;;;;;;;;11.70;99.90;;;;;;6215317;23;19927;-80
2022/05/20 04:18:54;;;;;;;;;;;11.40;99.90;;;;;;6216003;23;20019;-79
2022/05/20 04:21:20;;;;;;;;;;;11.40;99.90;;;;;;6215743;23;19920;-80
2022/05/20 04:23:45;;;;;;;;;;;11.40;99.90;;;;;;6214125;23;19920;-80
2022/05/20 04:26:11;;;;;;;;;;;11.40;99.90;;;;;;6213866;23;19927;-80
2022/05/20 04:28:37;;;;;;;;;;;11.50;99.90;;;;;;6213964;23;19955;-81
2022/05/20 04:31:04;;;;;;;;;;;11.50;99.90;;;;;;6213397;23;19979;-80
2022/05/20 04:33:30;;;;;;;;;;;11.60;99.90;;;;;;6239287;23;19926;-80
2022/05/20 04:35:55;;;;;;;;;;;11.90;99.90;;;;;;6215742;23;19920;-81
2022/05/20 04:38:21;;;;;;;;;;;11.70;99.90;;;;;;6215696;23;19920;-81
2022/05/20 04:46:56;;;;;;;;;;;11.80;99.90;;;;;;6239754;23;19920;-81
2022/05/20 04:49:01;;;;;;;;;;;12.10;99.90;;;;;;6246208;23;19994;-79
2022/05/20 04:51:27;;;;;;;;;;;12.10;99.90;;;;;;6219261;23;19920;-80
2022/05/20 04:56:37;;;;;;;;;;;12.20;99.90;;;;;;6246113;23;19926;-79
2022/05/20 04:59:03;;;;;;;;;;;12.30;99.90;;;;;;6219391;23;20353;-79
2022/05/20 05:01:28;;;;;;;;;;;12.40;99.90;;;;;;6245983;23;19927;-79
2022/05/20 05:03:54;;;;;;;;;;;12.60;99.90;;;;;;6218695;23;20260;-80
2022/05/20 05:06:19;;;;;;;;;;;12.60;99.90;;;;;;6246932;23;19924;-76
2022/05/20 05:08:45;;;;;;;;;;;12.40;99.90;;;;;;6246553;23;19923;-78
2022/05/20 05:11:10;;;;;;;;;;;12.50;99.90;;;;;;6246673;23;19916;-78
2022/05/20 05:13:36;;;;;;;;;;;12.40;99.90;;;;;;6247233;23;19920;-79
2022/05/20 05:16:05;;;;;;;;;;;12.40;99.90;;;;;;6219378;23;20250;-78
2022/05/20 05:18:31;;;;;;;;;;;12.50;99.90;;;;;;6219313;23;19920;-79
2022/05/20 05:20:56;;;;;;;;;;;12.50;99.90;;;;;;6246465;23;19920;-78
2022/05/20 05:23:22;;;;;;;;;;;12.60;99.90;;;;;;6219220;23;19916;-79
2022/05/20 05:25:48;;;;;;;;;;;12.70;99.90;;;;;;6246516;23;19923;-75
2022/05/20 05:28:14;;;;;;;;;;;12.80;99.90;;;;;;6217978;23;19926;-77
2022/05/20 05:30:42;;;;;;;;;;;12.80;99.90;;;;;;6219437;23;19924;-75
2022/05/20 05:33:08;;;;;;;;;;;12.90;99.90;;;;;;6218656;23;20295;-76
2022/05/20 05:35:34;;;;;;;;;;;12.90;99.90;;;;;;6245732;23;19969;-78
2022/05/20 05:37:59;;;;;;;;;;;13.00;99.90;;;;;;6246213;23;20238;-80
2022/05/20 05:40:30;;;;;;;;;;;12.90;99.90;;;;;;6245576;23;19919;-78
2022/05/20 05:42:56;;;;;;;;;;;13.10;99.90;;;;;;6245911;23;19935;-80
2022/05/20 05:45:23;;;;;;;;;;;12.90;99.90;;;;;;6245013;23;19920;-80
2022/05/20 05:47:57;;;;;;;;;;;13.00;99.90;;;;;;6245483;23;20309;-79
2022/05/20 05:50:23;;;;;;;;;;;13.00;99.90;;;;;;6217660;23;20282;-81
2022/05/20 05:52:59;;;;;;;;;;;13.00;99.90;;;;;;6245774;23;19922;-79
2022/05/20 05:55:26;;;;;;;;;;;13.00;99.90;;;;;;6246862;23;20219;-80
2022/05/20 05:57:51;;;;;;;;;;;12.80;99.90;;;;;;6247801;23;19916;-81
2022/05/20 06:00:17;;;;;;;;;;;13.10;99.90;;;;;;6249203;23;20258;-80
2022/05/20 06:02:43;;;;;;;;;;;13.20;99.90;;;;;;6247763;23;19915;-81
2022/05/20 06:05:08;;;;;;;;;;;13.30;99.90;;;;;;6247386;23;19919;-81
2022/05/20 06:07:34;;;;;;;;;;;13.50;99.90;;;;;;6195097;23;19951;-77
2022/05/20 06:09:59;;;;;;;;;;;13.50;99.90;;;;;;6247411;23;19962;-81
2022/05/20 06:12:25;;;;;;;;;;;13.80;99.90;;;;;;6247505;23;19923;-81
2022/05/20 06:14:50;;;;;;;;;;;13.60;99.90;;;;;;6247758;23;19924;-79
2022/05/20 06:17:16;;;;;;;;;;;13.70;99.90;;;;;;6220659;23;19990;-81
2022/05/20 06:19:42;;;;;;;;;;;13.80;99.90;;;;;;6247781;23;20373;-80
2022/05/20 06:22:08;;;;;;;;;;;13.80;99.90;;;;;;6246950;23;20249;-80
2022/05/20 06:24:33;;;;;;;;;;;13.90;99.90;;;;;;6220752;23;19919;-80
2022/05/20 06:27:20;;;;;;;;;;;13.80;99.90;;;;;;6246861;23;19934;-80
2022/05/20 06:29:49;;;;;;;;;;;13.90;99.90;;;;;;6245999;23;20293;-80
2022/05/20 06:32:15;;;;;;;;;;;13.90;99.90;;;;;;6246991;23;20333;-78
2022/05/20 06:40:11;;;;;;;;;;;14.20;99.90;;;;;;6245092;23;19995;-83
2022/05/20 06:42:37;;;;;;;;;;;14.20;99.90;;;;;;6246146;23;19919;-87
2022/05/20 06:45:02;;;;;;;;;;;14.10;99.90;;;;;;6245764;23;19959;-87
2022/05/20 06:47:28;;;;;;;;;;;14.10;99.90;;;;;;6218230;23;20211;-81
2022/05/20 06:49:53;;;;;;;;;;;14.10;99.90;;;;;;6193266;23;19924;-79
2022/05/20 06:52:19;;;;;;;;;;;14.20;99.90;;;;;;6217691;23;19923;-85
2022/05/20 06:54:44;;;;;;;;;;;14.30;99.90;;;;;;6218847;23;19994;-85
2022/05/20 06:57:10;;;;;;;;;;;14.40;99.90;;;;;;6245180;23;20014;-84
2022/05/20 06:59:36;;;;;;;;;;;14.50;99.90;;;;;;6218214;23;19926;-85
2022/05/20 07:02:01;;;;;;;;;;;14.70;99.90;;;;;;6245708;23;19947;-86
2022/05/20 07:04:29;;;;;;;;;;;14.80;99.90;;;;;;6218043;23;19926;-84
2022/05/20 07:06:59;;;;;;;;;;;15.00;99.90;;;;;;6217665;23;19963;-86
2022/05/20 07:09:25;;;;;;;;;;;15.10;99.90;;;;;;6217605;23;19919;-82
2022/05/20 07:11:52;;;;;;;;;;;15.10;99.90;;;;;;6217828;23;19919;-85
2022/05/20 07:14:17;;;;;;;;;;;15.30;99.90;;;;;;6192723;23;20000;-87
2022/05/20 07:16:46;;;;;;;;;;;15.30;99.90;;;;;;6245490;23;19919;-89
2022/05/20 07:19:11;;;;;;;;;;;15.50;99.90;;;;;;6219510;23;19927;-83
2022/05/20 07:21:37;;;;;;;;;;;15.60;99.90;;;;;;6216281;23;20332;-88
2022/05/20 07:24:04;;;;;;;;;;;15.70;99.90;;;;;;6191485;23;19970;-86
2022/05/20 07:26:30;;;;;;;;;;;15.80;99.90;;;;;;6218959;23;19919;-88
2022/05/20 07:28:55;;;;;;;;;;;15.90;99.90;;;;;;6221243;23;19979;-88
2022/05/20 07:31:23;;;;;;;;;;;15.90;99.90;;;;;;6252997;23;20349;-91
2022/05/20 07:33:50;;;;;;;;;;;15.90;99.90;;;;;;6198109;23;20298;-91
2022/05/20 07:36:15;;;;;;;;;;;15.80;99.90;;;;;;6248950;23;19958;-88
2022/05/20 07:38:41;;;;;;;;;;;15.90;99.90;;;;;;6221322;23;19916;-92
2022/05/20 07:41:06;;;;;;;;;;;15.90;99.90;;;;;;6248451;23;20353;-92
2022/05/20 07:43:32;;;;;;;;;;;16.00;99.90;;;;;;6220248;23;19983;-86
2022/05/20 07:45:58;;;;;;;;;;;16.20;99.90;;;;;;6219231;23;20239;-87
2022/05/20 07:48:24;;;;;;;;;;;16.20;99.90;;;;;;6220477;23;19924;-88
2022/05/20 07:50:55;;;;;;;;;;;16.20;99.90;;;;;;6247482;23;20309;-91
2022/05/20 07:53:21;;;;;;;;;;;16.00;99.90;;;;;;6252813;23;19927;-91
2022/05/20 07:55:50;;;;;;;;;;;16.20;99.90;;;;;;6257176;23;19926;-87
2022/05/20 07:58:17;;;;;;;;;;;15.80;99.90;;;;;;6262303;23;19943;-76
2022/05/20 08:00:43;;;;;;;;;;;15.90;99.90;;;;;;6252177;23;19960;-91
2022/05/20 08:03:09;;;;;;;;;;;15.90;99.90;;;;;;6220815;23;19926;-90
2022/05/20 08:05:35;;;;;;;;;;;16.00;99.90;;;;;;6194599;23;19919;-90
2022/05/20 08:08:05;;;;;;;;;;;16.10;99.90;;;;;;6217932;23;20153;-84
2022/05/20 08:10:32;;;;;;;;;;;16.30;99.90;;;;;;6246618;23;19915;-91
2022/05/20 08:12:57;;;;;;;;;;;16.50;99.90;;;;;;6246521;23;19966;-88
2022/05/20 08:15:23;;;;;;;;;;;16.70;99.90;;;;;;6246865;23;19923;-94
2022/05/20 08:17:49;;;;;;;;;;;16.80;99.90;;;;;;6245597;23;19927;-90
2022/05/20 08:20:21;;;;;;;;;;;16.90;99.90;;;;;;6220485;23;19920;-90
2022/05/20 08:22:47;;;;;;;;;;;16.80;99.90;;;;;;6197818;23;19919;-92
2022/05/20 08:25:13;;;;;;;;;;;16.80;99.90;;;;;;6252267;23;19919;-87
2022/05/20 08:27:39;;;;;;;;;;;16.80;99.90;;;;;;6246716;23;19951;-85
2022/05/20 08:30:07;;;;;;;;;;;16.90;99.90;;;;;;6244545;23;19970;-91
2022/05/20 08:32:32;;;;;;;;;;;17.00;99.90;;;;;;6244535;23;19920;-91
2022/05/20 08:34:58;;;;;;;;;;;17.00;99.90;;;;;;6243873;23;19930;-85
2022/05/20 08:37:23;;;;;;;;;;;17.00;99.90;;;;;;6217280;23;19923;-86
2022/05/20 08:39:49;;;;;;;;;;;17.00;99.90;;;;;;6216414;23;19974;-84
2022/05/20 08:42:17;;;;;;;;;;;17.10;99.90;;;;;;6244308;23;19920;-86
2022/05/20 08:44:42;;;;;;;;;;;17.00;99.90;;;;;;6242988;23;19920;-80
2022/05/20 08:47:28;;;;;;;;;;;17.00;99.90;;;;;;6243060;23;20010;-82
2022/05/20 08:49:57;;;;;;;;;;;17.00;99.90;;;;;;6216787;23;19943;-82
2022/05/20 08:52:22;;;;;;;;;;;17.10;99.90;;;;;;6243839;23;19920;-87
2022/05/20 08:54:48;;;;;;;;;;;17.10;99.90;;;;;;6216845;23;19920;-83
2022/05/20 08:57:19;;;;;;;;;;;17.40;99.90;;;;;;6216859;23;19920;-81
2022/05/20 08:59:45;;;;;;;;;;;17.50;99.90;;;;;;6241729;23;19926;-80
2022/05/20 09:02:10;;;;;;;;;;;17.60;99.90;;;;;;6216362;23;19931;-81
2022/05/20 09:04:36;;;;;;;;;;;17.60;99.90;;;;;;6216960;23;19919;-83
2022/05/20 09:07:06;;;;;;;;;;;17.70;99.90;;;;;;6191125;23;20223;-82
2022/05/20 09:09:38;;;;;;;;;;;18.00;99.90;;;;;;6216813;23;19926;-83
2022/05/20 09:12:04;;;;;;;;;;;18.10;99.90;;;;;;6241386;23;19919;-82
2022/05/20 09:17:18;;;;;;;;;;;18.10;99.90;;;;;;6216216;23;19923;-82
2022/05/20 09:19:53;;;;;;;;;;;18.30;99.90;;;;;;6242289;23;20338;-85
2022/05/20 09:22:24;;;;;;;;;;;18.30;99.90;;;;;;6190161;23;19930;-82
2022/05/20 09:24:49;;;;;;;;;;;18.30;99.90;;;;;;6243790;23;19919;-82
2022/05/20 09:27:25;;;;;;;;;;;18.40;99.90;;;;;;6216607;23;19919;-79
2022/05/20 09:29:59;;;;;;;;;;;18.50;99.90;;;;;;6215874;23;19931;-77
2022/05/20 09:32:34;;;;;;;;;;;18.70;99.90;;;;;;6190781;23;20245;-86
2022/05/20 09:35:04;;;;;;;;;;;18.90;99.90;;;;;;6242366;23;20343;-84
2022/05/20 09:37:31;;;;;;;;;;;18.90;99.90;;;;;;6218109;23;20312;-90
2022/05/20 09:39:57;;;;;;;;;;;18.90;99.90;;;;;;6200169;23;19926;-93
2022/05/20 09:42:27;;;;;;;;;;;19.10;99.90;;;;;;6196068;23;19955;-91
2022/05/20 09:44:54;;;;;;;;;;;19.10;99.90;;;;;;6243323;23;19958;-89
2022/05/20 09:47:23;;;;;;;;;;;19.20;99.90;;;;;;6242760;23;19931;-73
2022/05/20 09:49:52;;;;;;;;;;;19.40;99.90;;;;;;6244992;23;20034;-80
2022/05/20 09:52:22;;;;;;;;;;;19.50;99.90;;;;;;6246178;23;20338;-88
2022/05/20 09:54:55;;;;;;;;;;;19.60;99.90;;;;;;6217723;23;19928;-88
2022/05/20 09:57:27;;;;;;;;;;;19.90;99.90;;;;;;6219964;23;20238;-92
2022/05/20 09:59:55;;;;;;;;;;;20.00;99.90;;;;;;6217314;23;19966;-89
2022/05/20 10:02:27;;;;;;;;;;;20.20;99.90;;;;;;6216199;23;19926;-87
2022/05/20 10:04:53;;;;;;;;;;;20.30;99.90;;;;;;6217499;23;19920;-86
2022/05/20 10:07:27;;;;;;;;;;;20.40;99.90;;;;;;6218907;23;19931;-86
2022/05/20 10:10:06;;;;;;;;;;;20.40;99.90;;;;;;6218337;23;19942;-91
2022/05/20 10:12:33;;;;;;;;;;;20.40;99.90;;;;;;6246213;23;19922;-73
2022/05/20 10:15:02;;;;;;;;;;;20.30;99.90;;;;;;6252233;23;19982;-88
2022/05/20 10:17:46;;;;;;;;;;;20.20;99.90;;;;;;6215925;23;19923;-85
2022/05/20 10:20:22;;;;;;;;;;;20.10;99.90;;;;;;6243605;23;20326;-78
2022/05/20 10:23:11;;;;;;;;;;;19.90;99.90;;;;;;6217315;23;19924;-90
2022/05/20 10:25:39;;;;;;;;;;;19.80;99.90;;;;;;6217041;23;19938;-86
2022/05/20 10:34:21;;;;;;;;;;;19.70;99.90;;;;;;6216585;23;19981;-94
2022/05/20 10:36:46;;;;;;;;;;;19.60;99.90;;;;;;6218377;23;19915;-79
2022/05/20 10:39:32;;;;;;;;;;;19.70;99.90;;;;;;6241056;23;19926;-85
2022/05/20 10:42:11;;;;;;;;;;;19.80;99.90;;;;;;6216107;23;19924;-87
2022/05/20 10:50:24;;;;;;;;;;;20.20;99.90;;;;;;6246361;23;20410;-87
2022/05/20 10:53:07;;;;;;;;;;;20.10;99.90;;;;;;6250125;23;19948;-89
2022/05/20 10:55:33;;;;;;;;;;;20.20;99.90;;;;;;6219361;23;19919;-90
2022/05/20 10:58:07;;;;;;;;;;;20.20;99.90;;;;;;6217248;23;19965;-80
2022/05/20 11:00:39;;;;;;;;;;;20.40;99.90;;;;;;6194028;23;19920;-91
2022/05/20 11:03:05;;;;;;;;;;;20.50;99.90;;;;;;6245366;23;19961;-89
2022/05/20 11:05:38;;;;;;;;;;;20.60;99.90;;;;;;6245396;23;19919;-89
2022/05/20 11:08:06;;;;;;;;;;;20.60;99.90;;;;;;6245189;23;19939;-89
2022/05/20 11:10:35;;;;;;;;;;;20.60;99.90;;;;;;6223778;23;19926;-91
2022/05/20 11:13:05;;;;;;;;;;;20.60;99.90;;;;;;6224746;23;19920;-90
2022/05/20 11:15:36;;;;;;;;;;;20.60;99.90;;;;;;6246154;23;19916;-80
2022/05/20 11:18:06;;;;;;;;;;;20.60;99.90;;;;;;6244115;23;20458;-85
2022/05/20 11:20:31;;;;;;;;;;;20.80;99.90;;;;;;6242870;23;19915;-82
2022/05/20 11:23:03;;;;;;;;;;;21.00;99.90;;;;;;6217193;23;19953;-86
2022/05/20 11:25:58;;;;;;;;;;;20.90;99.50;;;;;;6217171;23;19924;-83
2022/05/20 11:28:42;;;;;;;;;;;20.70;99.90;;;;;;6091962;23;19980;-80
2022/05/20 11:31:07;;;;;;;;;;;20.80;98.60;;;;;;6092659;23;20713;-80
2022/05/20 11:33:42;;;;;;;;;;;21.00;99.90;;;;;;6092442;23;20003;-85
2022/05/20 11:36:07;;;;;;;;;;;21.10;99.90;;;;;;6091559;23;19960;-86
2022/05/20 11:38:48;;;;;;;;;;;21.30;98.80;;;;;;6092265;23;19929;-85
2022/05/20 11:41:22;;;;;;;;;;;21.40;99.90;;;;;;6091849;23;19974;-88
2022/05/20 11:43:53;;;;;;;;;;;21.30;92.40;;;;;;6091874;23;19925;-83
2022/05/20 11:46:37;;;;;;;;;;;21.40;94.90;;;;;;6091818;23;19936;-84
2022/05/20 11:49:17;;;;;;;;;;;21.50;99.90;;;;;;6094430;23;19944;-91
2022/05/20 11:51:49;;;;;;;;;;;21.60;99.90;;;;;;6069920;23;19921;-91
2022/05/20 11:54:17;;;;;;;;;;;21.70;99.90;;;;;;6073268;23;20243;-87
2022/05/20 11:56:45;;;;;;;;;;;21.80;99.90;;;;;;6093092;23;19922;-88
2022/05/20 11:59:27;;;;;;;;;;;21.90;99.90;;;;;;6091705;23;19923;-87
2022/05/20 12:01:55;;;;;;;;;;;21.90;99.90;;;;;;6042199;23;19967;-89
2022/05/20 12:04:22;;;;;;;;;;;22.00;99.90;;;;;;6129318;23;19923;-89
2022/05/20 12:06:59;;;;;;;;;;;22.10;99.90;;;;;;6213901;23;19943;-90
2022/05/20 12:09:28;;;;;;;;;;;22.00;99.90;;;;;;6162459;23;19931;-91
2022/05/20 12:12:05;;;;;;;;;;;21.70;99.80;;;;;;6163006;23;19931;-92
2022/05/20 12:14:51;;;;;;;;;;;21.70;99.90;;;;;;6216811;23;19920;-82
2022/05/20 12:17:28;;;;;;;;;;;21.40;99.90;;;;;;6186695;23;19927;-73
2022/05/20 12:25:31;;;;;;;;;;;21.00;99.90;;;;;;6216416;23;19974;-94
2022/05/20 12:28:27;;;;;;;;;;;21.20;99.90;;;;;;6237936;23;19904;-92
2022/05/20 12:30:52;;;;;;;;;;;21.20;99.90;;;;;;6212208;23;19904;-91
2022/05/20 12:33:22;;;;;;;;;;;21.10;99.90;;;;;;6238308;23;20026;-93
2022/05/20 12:36:08;;;;;;;;;;;21.10;99.90;;;;;;6211639;23;19923;-85
2022/05/20 12:38:33;;;;;;;;;;;21.10;99.90;;;;;;6210688;23;19951;-91
2022/05/20 12:41:00;;;;;;;;;;;21.10;99.90;;;;;;6225758;23;19924;-89
2022/05/20 12:43:46;;;;;;;;;;;21.20;99.90;;;;;;6226848;23;19930;-87
2022/05/20 12:46:16;;;;;;;;;;;21.20;99.90;;;;;;6199613;23;19975;-84
2022/05/20 12:48:41;;;;;;;;;;;21.20;99.90;;;;;;6229975;23;19904;-89
2022/05/20 12:51:10;;;;;;;;;;;21.20;99.90;;;;;;6220359;23;19926;-73
2022/05/20 12:53:56;;;;;;;;;;;21.20;99.90;;;;;;6228024;23;19916;-79
2022/05/20 12:56:28;;;;;;;;;;;21.40;99.10;;;;;;6226594;23;19926;-80
2022/05/20 12:59:10;;;;;;;;;;;21.10;98.00;;;;;;6227028;23;19915;-77
2022/05/20 13:01:37;;;;;;;;;;;21.10;94.60;;;;;;6224057;23;19927;-86
2022/05/20 13:04:09;;;;;;;;;;;21.00;95.90;;;;;;6224440;23;19955;-85
2022/05/20 13:06:34;;;;;;;;;;;21.10;97.40;;;;;;6225806;23;20416;-91
2022/05/20 13:09:02;;;;;;;;;;;21.10;98.70;;;;;;6225826;23;19966;-92
2022/05/20 13:11:38;;;;;;;;;;;20.90;99.90;;;;;;6220202;23;19924;-74
2022/05/20 13:14:04;;;;;;;;;;;20.90;97.20;;;;;;6219698;23;19931;-94
2022/05/20 13:16:31;;;;;;;;;;;20.70;98.90;;;;;;6218442;23;19920;-77
2022/05/20 13:19:02;;;;;;;;;;;20.40;99.90;;;;;;6219140;23;19977;-83
2022/05/20 13:21:28;;;;;;;;;;;20.40;99.40;;;;;;6241610;23;19931;-80
2022/05/20 13:23:54;;;;;;;;;;;20.40;99.90;;;;;;6216446;23;19924;-73
2022/05/20 13:26:22;;;;;;;;;;;20.40;99.90;;;;;;6214276;23;19942;-92
2022/05/20 13:28:48;;;;;;;;;;;20.40;99.90;;;;;;6216704;23;19931;-92
2022/05/20 13:31:22;;;;;;;;;;;20.40;99.90;;;;;;6215675;23;19919;-83
2022/05/20 13:33:48;;;;;;;;;;;20.40;99.90;;;;;;6217940;23;19923;-85
2022/05/20 13:36:17;;;;;;;;;;;20.20;99.90;;;;;;6218998;23;20005;-89
2022/05/20 13:38:44;;;;;;;;;;;20.20;99.90;;;;;;6219905;23;19920;-90
2022/05/20 13:41:10;;;;;;;;;;;20.10;99.90;;;;;;6217557;23;20373;-88
2022/05/20 13:43:37;;;;;;;;;;;20.10;99.90;;;;;;6188083;23;19988;-72
2022/05/20 13:51:42;;;;;;;;;;;19.90;99.90;;;;;;6212657;23;19919;-73
2022/05/20 13:54:09;;;;;;;;;;;19.80;99.90;;;;;;6187243;23;19920;-72
2022/05/20 13:56:37;;;;;;;;;;;19.70;99.90;;;;;;6214331;23;19927;-74
2022/05/20 13:59:22;;;;;;;;;;;19.70;99.90;;;;;;6212931;23;19968;-77
2022/05/20 14:01:52;;;;;;;;;;;19.70;99.90;;;;;;6213081;23;20017;-75
2022/05/20 14:04:19;;;;;;;;;;;19.60;99.90;;;;;;6213382;23;19994;-73
2022/05/20 14:06:52;;;;;;;;;;;19.60;99.90;;;;;;6213286;23;19920;-73
2022/05/20 14:09:24;;;;;;;;;;;19.70;99.90;;;;;;6211302;23;20289;-73
2022/05/20 14:11:53;;;;;;;;;;;19.40;99.90;;;;;;6187362;23;19926;-78
2022/05/20 14:14:21;;;;;;;;;;;19.30;99.90;;;;;;6212517;23;19944;-73
2022/05/20 14:16:51;;;;;;;;;;;19.20;99.90;;;;;;6187967;23;19924;-71
2022/05/20 14:19:23;;;;;;;;;;;19.20;99.90;;;;;;6187980;23;19916;-71
2022/05/20 14:21:50;;;;;;;;;;;19.10;99.90;;;;;;6214738;23;19927;-72
2022/05/20 14:24:23;;;;;;;;;;;19.00;99.90;;;;;;6212827;23;19916;-71
2022/05/20 14:26:56;;;;;;;;;;;18.90;99.90;;;;;;6189022;23;19920;-71
2022/05/20 14:29:33;;;;;;;;;;;18.80;99.90;;;;;;6212419;23;19970;-72
2022/05/20 14:32:04;;;;;;;;;;;18.70;99.90;;;;;;6214736;23;20304;-70
2022/05/20 14:34:52;;;;;;;;;;;18.60;99.90;;;;;;6210930;23;19946;-70
2022/05/20 14:37:24;;;;;;;;;;;18.50;99.90;;;;;;6213607;23;20401;-73
2022/05/20 14:39:59;;;;;;;;;;;18.40;99.90;;;;;;6212596;23;19923;-75
2022/05/20 14:42:39;;;;;;;;;;;18.40;99.90;;;;;;6213396;23;20352;-77
2022/05/20 14:45:11;;;;;;;;;;;18.20;99.90;;;;;;6214590;23;20333;-76
2022/05/20 14:47:39;;;;;;;;;;;18.10;99.90;;;;;;6187876;23;20237;-73
2022/05/20 14:50:18;;;;;;;;;;;18.00;99.90;;;;;;6213493;23;19931;-78
2022/05/20 14:52:53;;;;;;;;;;;17.80;99.90;;;;;;6187939;23;19920;-74
2022/05/20 14:55:35;;;;;;;;;;;17.70;99.90;;;;;;6213796;23;19931;-75
2022/05/20 15:02:04;;;;;;;;;;;17.40;99.90;;;;;;6149801;23;20000;-75
2022/05/20 15:08:11;;;;;;;;;;;17.20;99.90;;;;;;5925462;23;20378;-73
2022/05/20 15:10:59;;;;;;;;;;;17.10;99.90;;;;;;5900785;24;19941;-79
2022/05/20 15:13:27;;;;;;;;;;;17.20;99.90;;;;;;5900286;24;20377;-77
2022/05/20 15:16:12;;;;;;;;;;;17.00;99.90;;;;;;5900820;24;19924;-81
2022/05/20 15:18:38;;;;;;;;;;;17.00;99.90;;;;;;5923025;24;19923;-75
2022/05/20 15:21:11;;;;;;;;;;;16.90;99.90;;;;;;5900608;24;19934;-78
2022/05/20 15:23:41;;;;;;;;;;;16.90;99.90;;;;;;5901237;24;20048;-82